sensor_id;sensor_type;location;lat;lon;timestamp;P1;durP1;ratioP1;P2;durP2;ratioP2
11344;SDS011;5727;42.600;23.028;2023-03-11T00:02:05;2.93;;;2.00;;
11344;SDS011;5727;42.600;23.028;2023-03-11T00:04:32;2.10;;;2.00;;
11344;SDS011;5727;42.600;23.028;2023-03-11T00:06:59;1.93;;;1.83;;
11344;SDS011;5727;42.600;23.028;2023-03-11T00:09:27;2.40;;;2.20;;
11344;SDS011;5727;42.600;23.028;2023-03-11T00:11:53;2.00;;;1.90;;
11344;SDS011;5727;42.600;23.028;2023-03-11T00:14:20;2.43;;;2.27;;
11344;SDS011;5727;42.600;23.028;2023-03-11T00:16:47;2.80;;;2.60;;
11344;SDS011;5727;42.600;23.028;2023-03-11T00:19:13;2.73;;;2.53;;
11344;SDS011;5727;42.600;23.028;2023-03-11T00:21:40;2.50;;;2.30;;
11344;SDS011;5727;42.600;23.028;2023-03-11T00:24:07;3.77;;;2.47;;
11344;SDS011;5727;42.600;23.028;2023-03-11T00:26:35;2.60;;;2.40;;
11344;SDS011;5727;42.600;23.028;2023-03-11T00:29:02;3.83;;;2.00;;
11344;SDS011;5727;42.600;23.028;2023-03-11T00:31:29;1.90;;;1.80;;
11344;SDS011;5727;42.600;23.028;2023-03-11T00:33:56;1.50;;;1.50;;
11344;SDS011;5727;42.600;23.028;2023-03-11T00:36:23;1.30;;;1.30;;
11344;SDS011;5727;42.600;23.028;2023-03-11T00:38:53;1.40;;;1.40;;
11344;SDS011;5727;42.600;23.028;2023-03-11T00:41:19;2.10;;;1.50;;
11344;SDS011;5727;42.600;23.028;2023-03-11T00:43:47;1.53;;;1.43;;
11344;SDS011;5727;42.600;23.028;2023-03-11T00:46:14;1.50;;;1.50;;
11344;SDS011;5727;42.600;23.028;2023-03-11T00:48:41;1.77;;;1.67;;
11344;SDS011;5727;42.600;23.028;2023-03-11T00:51:08;1.43;;;1.33;;
11344;SDS011;5727;42.600;23.028;2023-03-11T00:53:38;1.50;;;1.50;;
11344;SDS011;5727;42.600;23.028;2023-03-11T00:56:06;1.40;;;1.40;;
11344;SDS011;5727;42.600;23.028;2023-03-11T00:58:33;1.60;;;1.50;;
11344;SDS011;5727;42.600;23.028;2023-03-11T01:01:01;1.50;;;1.50;;
11344;SDS011;5727;42.600;23.028;2023-03-11T01:03:32;1.30;;;1.30;;
11344;SDS011;5727;42.600;23.028;2023-03-11T01:06:00;1.87;;;1.77;;
11344;SDS011;5727;42.600;23.028;2023-03-11T01:08:27;1.60;;;1.60;;
11344;SDS011;5727;42.600;23.028;2023-03-11T01:10:55;1.90;;;1.70;;
11344;SDS011;5727;42.600;23.028;2023-03-11T01:13:23;2.27;;;2.17;;
11344;SDS011;5727;42.600;23.028;2023-03-11T01:15:50;2.57;;;2.43;;
11344;SDS011;5727;42.600;23.028;2023-03-11T01:18:19;4.23;;;3.83;;
11344;SDS011;5727;42.600;23.028;2023-03-11T01:20:46;4.47;;;4.07;;
11344;SDS011;5727;42.600;23.028;2023-03-11T01:23:13;4.67;;;3.80;;
11344;SDS011;5727;42.600;23.028;2023-03-11T01:25:41;3.50;;;3.30;;
11344;SDS011;5727;42.600;23.028;2023-03-11T01:28:07;3.00;;;2.70;;
11344;SDS011;5727;42.600;23.028;2023-03-11T01:30:35;3.07;;;2.80;;
11344;SDS011;5727;42.600;23.028;2023-03-11T01:33:03;2.77;;;2.57;;
11344;SDS011;5727;42.600;23.028;2023-03-11T01:35:32;2.97;;;2.77;;
11344;SDS011;5727;42.600;23.028;2023-03-11T01:37:59;4.03;;;3.63;;
11344;SDS011;5727;42.600;23.028;2023-03-11T01:40:28;3.47;;;3.23;;
11344;SDS011;5727;42.600;23.028;2023-03-11T01:42:57;3.40;;;3.10;;
11344;SDS011;5727;42.600;23.028;2023-03-11T01:45:40;3.53;;;2.60;;
11344;SDS011;5727;42.600;23.028;2023-03-11T01:48:28;3.00;;;2.70;;
11344;SDS011;5727;42.600;23.028;2023-03-11T01:50:56;4.27;;;2.60;;
11344;SDS011;5727;42.600;23.028;2023-03-11T01:53:23;3.03;;;2.80;;
11344;SDS011;5727;42.600;23.028;2023-03-11T01:55:50;3.03;;;2.70;;
11344;SDS011;5727;42.600;23.028;2023-03-11T01:58:19;2.27;;;2.17;;
11344;SDS011;5727;42.600;23.028;2023-03-11T02:00:49;2.73;;;2.53;;
11344;SDS011;5727;42.600;23.028;2023-03-11T02:03:17;2.60;;;2.50;;
11344;SDS011;5727;42.600;23.028;2023-03-11T02:05:48;2.53;;;2.40;;
11344;SDS011;5727;42.600;23.028;2023-03-11T02:08:20;2.80;;;2.60;;
11344;SDS011;5727;42.600;23.028;2023-03-11T02:10:46;3.10;;;2.80;;
11344;SDS011;5727;42.600;23.028;2023-03-11T02:13:15;3.10;;;2.90;;
11344;SDS011;5727;42.600;23.028;2023-03-11T02:15:42;2.67;;;2.47;;
11344;SDS011;5727;42.600;23.028;2023-03-11T02:18:09;2.60;;;2.50;;
11344;SDS011;5727;42.600;23.028;2023-03-11T02:20:41;3.40;;;3.10;;
11344;SDS011;5727;42.600;23.028;2023-03-11T02:23:12;2.67;;;2.53;;
11344;SDS011;5727;42.600;23.028;2023-03-11T02:25:43;2.50;;;2.40;;
11344;SDS011;5727;42.600;23.028;2023-03-11T02:28:17;2.60;;;2.40;;
11344;SDS011;5727;42.600;23.028;2023-03-11T02:30:46;2.40;;;2.30;;
11344;SDS011;5727;42.600;23.028;2023-03-11T02:33:13;2.20;;;2.10;;
11344;SDS011;5727;42.600;23.028;2023-03-11T02:35:41;2.27;;;2.17;;
11344;SDS011;5727;42.600;23.028;2023-03-11T02:38:08;1.90;;;1.80;;
11344;SDS011;5727;42.600;23.028;2023-03-11T02:40:49;1.93;;;1.80;;
11344;SDS011;5727;42.600;23.028;2023-03-11T02:43:22;2.00;;;1.90;;
11344;SDS011;5727;42.600;23.028;2023-03-11T02:45:53;1.90;;;1.80;;
11344;SDS011;5727;42.600;23.028;2023-03-11T02:48:23;1.70;;;1.70;;
11344;SDS011;5727;42.600;23.028;2023-03-11T02:50:54;2.03;;;1.93;;
11344;SDS011;5727;42.600;23.028;2023-03-11T02:53:21;2.00;;;1.90;;
11344;SDS011;5727;42.600;23.028;2023-03-11T02:55:48;2.03;;;1.93;;
11344;SDS011;5727;42.600;23.028;2023-03-11T02:58:15;2.50;;;2.40;;
11344;SDS011;5727;42.600;23.028;2023-03-11T03:00:43;2.33;;;2.23;;
11344;SDS011;5727;42.600;23.028;2023-03-11T03:03:09;1.90;;;1.80;;
11344;SDS011;5727;42.600;23.028;2023-03-11T03:05:36;2.07;;;1.97;;
11344;SDS011;5727;42.600;23.028;2023-03-11T03:08:03;2.10;;;2.00;;
11344;SDS011;5727;42.600;23.028;2023-03-11T03:10:30;1.83;;;1.73;;
11344;SDS011;5727;42.600;23.028;2023-03-11T03:12:56;1.87;;;1.77;;
11344;SDS011;5727;42.600;23.028;2023-03-11T03:15:23;1.97;;;1.87;;
11344;SDS011;5727;42.600;23.028;2023-03-11T03:17:51;2.30;;;2.20;;
11344;SDS011;5727;42.600;23.028;2023-03-11T03:20:18;1.70;;;1.60;;
11344;SDS011;5727;42.600;23.028;2023-03-11T03:22:47;1.77;;;1.77;;
11344;SDS011;5727;42.600;23.028;2023-03-11T03:25:14;1.70;;;1.60;;
11344;SDS011;5727;42.600;23.028;2023-03-11T03:27:41;1.87;;;1.77;;
11344;SDS011;5727;42.600;23.028;2023-03-11T03:30:08;2.00;;;1.90;;
11344;SDS011;5727;42.600;23.028;2023-03-11T03:32:36;1.60;;;1.60;;
11344;SDS011;5727;42.600;23.028;2023-03-11T03:35:05;1.80;;;1.70;;
11344;SDS011;5727;42.600;23.028;2023-03-11T03:37:33;1.80;;;1.70;;
11344;SDS011;5727;42.600;23.028;2023-03-11T03:40:01;2.00;;;1.90;;
11344;SDS011;5727;42.600;23.028;2023-03-11T03:42:31;2.00;;;1.90;;
11344;SDS011;5727;42.600;23.028;2023-03-11T03:44:58;1.80;;;1.70;;
11344;SDS011;5727;42.600;23.028;2023-03-11T03:47:25;2.03;;;1.93;;
11344;SDS011;5727;42.600;23.028;2023-03-11T03:49:52;1.70;;;1.60;;
11344;SDS011;5727;42.600;23.028;2023-03-11T03:52:20;1.70;;;1.60;;
11344;SDS011;5727;42.600;23.028;2023-03-11T03:54:47;1.50;;;1.40;;
11344;SDS011;5727;42.600;23.028;2023-03-11T03:57:13;1.80;;;1.70;;
11344;SDS011;5727;42.600;23.028;2023-03-11T03:59:40;1.70;;;1.60;;
11344;SDS011;5727;42.600;23.028;2023-03-11T04:02:07;2.17;;;1.70;;
11344;SDS011;5727;42.600;23.028;2023-03-11T04:04:34;1.57;;;1.53;;
11344;SDS011;5727;42.600;23.028;2023-03-11T04:07:02;2.37;;;1.60;;
11344;SDS011;5727;42.600;23.028;2023-03-11T04:09:31;1.73;;;1.70;;
11344;SDS011;5727;42.600;23.028;2023-03-11T04:11:57;2.00;;;1.80;;
11344;SDS011;5727;42.600;23.028;2023-03-11T04:14:25;1.93;;;1.83;;
11344;SDS011;5727;42.600;23.028;2023-03-11T04:16:51;1.90;;;1.80;;
11344;SDS011;5727;42.600;23.028;2023-03-11T04:19:18;1.70;;;1.60;;
11344;SDS011;5727;42.600;23.028;2023-03-11T04:21:45;1.90;;;1.80;;
11344;SDS011;5727;42.600;23.028;2023-03-11T04:24:12;1.77;;;1.67;;
11344;SDS011;5727;42.600;23.028;2023-03-11T04:26:40;1.80;;;1.70;;
11344;SDS011;5727;42.600;23.028;2023-03-11T04:29:06;1.60;;;1.60;;
11344;SDS011;5727;42.600;23.028;2023-03-11T04:31:33;1.60;;;1.50;;
11344;SDS011;5727;42.600;23.028;2023-03-11T04:34:00;3.93;;;2.77;;
11344;SDS011;5727;42.600;23.028;2023-03-11T04:36:27;4.17;;;3.20;;
11344;SDS011;5727;42.600;23.028;2023-03-11T04:38:54;2.10;;;2.00;;
11344;SDS011;5727;42.600;23.028;2023-03-11T04:41:21;1.77;;;1.70;;
11344;SDS011;5727;42.600;23.028;2023-03-11T04:43:50;2.17;;;2.03;;
11344;SDS011;5727;42.600;23.028;2023-03-11T04:46:17;1.77;;;1.67;;
11344;SDS011;5727;42.600;23.028;2023-03-11T04:48:43;2.10;;;2.00;;
11344;SDS011;5727;42.600;23.028;2023-03-11T04:51:10;1.80;;;1.70;;
11344;SDS011;5727;42.600;23.028;2023-03-11T04:53:37;1.80;;;1.70;;
11344;SDS011;5727;42.600;23.028;2023-03-11T04:56:04;1.97;;;1.80;;
11344;SDS011;5727;42.600;23.028;2023-03-11T04:58:30;1.73;;;1.63;;
11344;SDS011;5727;42.600;23.028;2023-03-11T05:00:58;1.80;;;1.70;;
11344;SDS011;5727;42.600;23.028;2023-03-11T05:03:25;1.90;;;1.80;;
11344;SDS011;5727;42.600;23.028;2023-03-11T05:05:52;2.00;;;1.90;;
11344;SDS011;5727;42.600;23.028;2023-03-11T05:08:20;1.70;;;1.60;;
11344;SDS011;5727;42.600;23.028;2023-03-11T05:10:47;1.70;;;1.60;;
11344;SDS011;5727;42.600;23.028;2023-03-11T05:13:16;1.90;;;1.80;;
11344;SDS011;5727;42.600;23.028;2023-03-11T05:15:43;1.70;;;1.60;;
11344;SDS011;5727;42.600;23.028;2023-03-11T05:18:11;1.63;;;1.53;;
11344;SDS011;5727;42.600;23.028;2023-03-11T05:20:38;2.03;;;1.93;;
11344;SDS011;5727;42.600;23.028;2023-03-11T05:23:05;1.60;;;1.60;;
11344;SDS011;5727;42.600;23.028;2023-03-11T05:25:31;1.50;;;1.40;;
11344;SDS011;5727;42.600;23.028;2023-03-11T05:27:59;1.70;;;1.57;;
11344;SDS011;5727;42.600;23.028;2023-03-11T05:30:26;2.27;;;1.60;;
11344;SDS011;5727;42.600;23.028;2023-03-11T05:32:53;1.40;;;1.40;;
11344;SDS011;5727;42.600;23.028;2023-03-11T05:35:21;1.40;;;1.40;;
11344;SDS011;5727;42.600;23.028;2023-03-11T05:37:48;1.67;;;1.67;;
11344;SDS011;5727;42.600;23.028;2023-03-11T05:40:16;1.50;;;1.50;;
11344;SDS011;5727;42.600;23.028;2023-03-11T05:42:43;1.50;;;1.50;;
11344;SDS011;5727;42.600;23.028;2023-03-11T05:45:10;1.70;;;1.60;;
11344;SDS011;5727;42.600;23.028;2023-03-11T05:47:37;1.57;;;1.47;;
11344;SDS011;5727;42.600;23.028;2023-03-11T05:50:06;1.30;;;1.30;;
11344;SDS011;5727;42.600;23.028;2023-03-11T05:52:35;1.63;;;1.60;;
11344;SDS011;5727;42.600;23.028;2023-03-11T05:55:02;1.70;;;1.60;;
11344;SDS011;5727;42.600;23.028;2023-03-11T05:57:29;3.10;;;1.80;;
11344;SDS011;5727;42.600;23.028;2023-03-11T05:59:56;1.83;;;1.73;;
11344;SDS011;5727;42.600;23.028;2023-03-11T06:02:23;1.80;;;1.70;;
11344;SDS011;5727;42.600;23.028;2023-03-11T06:04:49;1.50;;;1.50;;
11344;SDS011;5727;42.600;23.028;2023-03-11T06:07:16;1.70;;;1.60;;
11344;SDS011;5727;42.600;23.028;2023-03-11T06:09:44;1.57;;;1.47;;
11344;SDS011;5727;42.600;23.028;2023-03-11T06:12:11;1.50;;;1.50;;
11344;SDS011;5727;42.600;23.028;2023-03-11T06:14:37;1.70;;;1.60;;
11344;SDS011;5727;42.600;23.028;2023-03-11T06:17:04;1.60;;;1.50;;
11344;SDS011;5727;42.600;23.028;2023-03-11T06:19:31;1.73;;;1.63;;
11344;SDS011;5727;42.600;23.028;2023-03-11T06:21:58;1.70;;;1.60;;
11344;SDS011;5727;42.600;23.028;2023-03-11T06:24:24;1.67;;;1.57;;
11344;SDS011;5727;42.600;23.028;2023-03-11T06:26:52;1.80;;;1.70;;
11344;SDS011;5727;42.600;23.028;2023-03-11T06:29:19;1.50;;;1.50;;
11344;SDS011;5727;42.600;23.028;2023-03-11T06:31:48;1.80;;;1.67;;
11344;SDS011;5727;42.600;23.028;2023-03-11T06:34:15;1.50;;;1.50;;
11344;SDS011;5727;42.600;23.028;2023-03-11T06:36:41;1.70;;;1.60;;
11344;SDS011;5727;42.600;23.028;2023-03-11T06:39:10;1.60;;;1.50;;
11344;SDS011;5727;42.600;23.028;2023-03-11T06:41:38;1.70;;;1.60;;
11344;SDS011;5727;42.600;23.028;2023-03-11T06:44:06;1.53;;;1.50;;
11344;SDS011;5727;42.600;23.028;2023-03-11T06:46:33;1.40;;;1.40;;
11344;SDS011;5727;42.600;23.028;2023-03-11T06:49:00;1.80;;;1.70;;
11344;SDS011;5727;42.600;23.028;2023-03-11T06:51:27;1.60;;;1.60;;
11344;SDS011;5727;42.600;23.028;2023-03-11T06:53:54;1.60;;;1.50;;
11344;SDS011;5727;42.600;23.028;2023-03-11T06:56:21;1.50;;;1.43;;
11344;SDS011;5727;42.600;23.028;2023-03-11T06:58:49;1.57;;;1.57;;
11344;SDS011;5727;42.600;23.028;2023-03-11T07:01:17;1.40;;;1.40;;
11344;SDS011;5727;42.600;23.028;2023-03-11T07:03:45;1.60;;;1.50;;
11344;SDS011;5727;42.600;23.028;2023-03-11T07:06:13;1.60;;;1.50;;
11344;SDS011;5727;42.600;23.028;2023-03-11T07:08:41;1.37;;;1.27;;
11344;SDS011;5727;42.600;23.028;2023-03-11T07:11:08;1.30;;;1.30;;
11344;SDS011;5727;42.600;23.028;2023-03-11T07:13:37;5.43;;;2.13;;
11344;SDS011;5727;42.600;23.028;2023-03-11T07:16:05;3.13;;;1.97;;
11344;SDS011;5727;42.600;23.028;2023-03-11T07:18:34;2.00;;;1.90;;
11344;SDS011;5727;42.600;23.028;2023-03-11T07:21:02;1.60;;;1.50;;
11344;SDS011;5727;42.600;23.028;2023-03-11T07:23:30;1.70;;;1.60;;
11344;SDS011;5727;42.600;23.028;2023-03-11T07:25:57;1.73;;;1.63;;
11344;SDS011;5727;42.600;23.028;2023-03-11T07:28:25;1.60;;;1.50;;
11344;SDS011;5727;42.600;23.028;2023-03-11T07:30:53;2.03;;;1.40;;
11344;SDS011;5727;42.600;23.028;2023-03-11T07:33:20;1.70;;;1.60;;
11344;SDS011;5727;42.600;23.028;2023-03-11T07:35:49;1.90;;;1.80;;
11344;SDS011;5727;42.600;23.028;2023-03-11T07:38:16;2.03;;;1.50;;
11344;SDS011;5727;42.600;23.028;2023-03-11T07:40:43;2.20;;;1.90;;
11344;SDS011;5727;42.600;23.028;2023-03-11T07:43:10;2.20;;;1.87;;
11344;SDS011;5727;42.600;23.028;2023-03-11T07:45:37;1.30;;;1.20;;
11344;SDS011;5727;42.600;23.028;2023-03-11T07:48:04;1.20;;;1.20;;
11344;SDS011;5727;42.600;23.028;2023-03-11T07:50:31;1.67;;;1.57;;
11344;SDS011;5727;42.600;23.028;2023-03-11T07:52:59;1.40;;;1.40;;
11344;SDS011;5727;42.600;23.028;2023-03-11T07:55:25;1.87;;;1.70;;
11344;SDS011;5727;42.600;23.028;2023-03-11T07:57:52;1.20;;;1.20;;
11344;SDS011;5727;42.600;23.028;2023-03-11T08:00:19;1.47;;;1.37;;
11344;SDS011;5727;42.600;23.028;2023-03-11T08:02:46;1.80;;;1.60;;
11344;SDS011;5727;42.600;23.028;2023-03-11T08:05:13;1.20;;;1.20;;
11344;SDS011;5727;42.600;23.028;2023-03-11T08:07:40;1.80;;;1.70;;
11344;SDS011;5727;42.600;23.028;2023-03-11T08:10:08;1.60;;;1.50;;
11344;SDS011;5727;42.600;23.028;2023-03-11T08:12:36;2.00;;;1.90;;
11344;SDS011;5727;42.600;23.028;2023-03-11T08:15:03;1.60;;;1.50;;
11344;SDS011;5727;42.600;23.028;2023-03-11T08:17:31;1.20;;;1.20;;
11344;SDS011;5727;42.600;23.028;2023-03-11T08:19:57;1.40;;;1.30;;
11344;SDS011;5727;42.600;23.028;2023-03-11T08:22:24;1.27;;;1.27;;
11344;SDS011;5727;42.600;23.028;2023-03-11T08:24:51;2.17;;;1.20;;
11344;SDS011;5727;42.600;23.028;2023-03-11T08:27:20;1.60;;;1.50;;
11344;SDS011;5727;42.600;23.028;2023-03-11T08:29:47;1.73;;;1.33;;
11344;SDS011;5727;42.600;23.028;2023-03-11T08:32:13;1.97;;;1.50;;
11344;SDS011;5727;42.600;23.028;2023-03-11T08:34:40;1.27;;;1.27;;
11344;SDS011;5727;42.600;23.028;2023-03-11T08:37:07;2.70;;;1.40;;
11344;SDS011;5727;42.600;23.028;2023-03-11T08:39:33;1.30;;;1.20;;
11344;SDS011;5727;42.600;23.028;2023-03-11T08:42:00;1.30;;;1.20;;
11344;SDS011;5727;42.600;23.028;2023-03-11T08:44:29;1.10;;;1.10;;
11344;SDS011;5727;42.600;23.028;2023-03-11T08:46:56;1.87;;;1.30;;
11344;SDS011;5727;42.600;23.028;2023-03-11T08:49:23;1.10;;;1.10;;
11344;SDS011;5727;42.600;23.028;2023-03-11T08:51:50;1.43;;;1.30;;
11344;SDS011;5727;42.600;23.028;2023-03-11T08:54:16;1.33;;;1.23;;
11344;SDS011;5727;42.600;23.028;2023-03-11T08:56:43;1.10;;;1.10;;
11344;SDS011;5727;42.600;23.028;2023-03-11T08:59:11;1.80;;;1.70;;
11344;SDS011;5727;42.600;23.028;2023-03-11T09:01:40;2.37;;;1.53;;
11344;SDS011;5727;42.600;23.028;2023-03-11T09:04:07;1.20;;;1.20;;
11344;SDS011;5727;42.600;23.028;2023-03-11T09:06:34;2.57;;;1.30;;
11344;SDS011;5727;42.600;23.028;2023-03-11T09:09:01;1.17;;;1.17;;
11344;SDS011;5727;42.600;23.028;2023-03-11T09:11:27;1.50;;;1.40;;
11344;SDS011;5727;42.600;23.028;2023-03-11T09:13:54;1.37;;;1.33;;
11344;SDS011;5727;42.600;23.028;2023-03-11T09:16:21;1.60;;;1.50;;
11344;SDS011;5727;42.600;23.028;2023-03-11T09:18:50;1.60;;;1.50;;
11344;SDS011;5727;42.600;23.028;2023-03-11T09:21:17;1.40;;;1.30;;
11344;SDS011;5727;42.600;23.028;2023-03-11T09:23:43;1.80;;;1.50;;
11344;SDS011;5727;42.600;23.028;2023-03-11T09:26:10;1.53;;;1.43;;
11344;SDS011;5727;42.600;23.028;2023-03-11T09:28:37;2.03;;;1.40;;
11344;SDS011;5727;42.600;23.028;2023-03-11T09:31:05;2.43;;;1.63;;
11344;SDS011;5727;42.600;23.028;2023-03-11T09:33:34;1.13;;;1.00;;
11344;SDS011;5727;42.600;23.028;2023-03-11T09:36:04;2.07;;;1.40;;
11344;SDS011;5727;42.600;23.028;2023-03-11T09:38:32;2.13;;;1.50;;
11344;SDS011;5727;42.600;23.028;2023-03-11T09:40:59;1.50;;;1.40;;
11344;SDS011;5727;42.600;23.028;2023-03-11T09:43:40;4.43;;;1.57;;
11344;SDS011;5727;42.600;23.028;2023-03-11T09:46:19;1.50;;;1.40;;
11344;SDS011;5727;42.600;23.028;2023-03-11T09:48:57;1.27;;;1.17;;
11344;SDS011;5727;42.600;23.028;2023-03-11T09:51:36;3.90;;;1.30;;
11344;SDS011;5727;42.600;23.028;2023-03-11T09:54:08;1.70;;;1.47;;
11344;SDS011;5727;42.600;23.028;2023-03-11T09:56:37;2.40;;;1.60;;
11344;SDS011;5727;42.600;23.028;2023-03-11T09:59:06;2.17;;;1.50;;
11344;SDS011;5727;42.600;23.028;2023-03-11T10:01:39;2.63;;;1.30;;
11344;SDS011;5727;42.600;23.028;2023-03-11T10:04:10;1.30;;;1.20;;
11344;SDS011;5727;42.600;23.028;2023-03-11T10:06:43;1.30;;;1.20;;
11344;SDS011;5727;42.600;23.028;2023-03-11T10:09:18;2.20;;;1.80;;
11344;SDS011;5727;42.600;23.028;2023-03-11T10:11:59;1.43;;;1.20;;
11344;SDS011;5727;42.600;23.028;2023-03-11T10:17:39;1.50;;;1.40;;
11344;SDS011;5727;42.600;23.028;2023-03-11T10:20:18;1.20;;;1.10;;
11344;SDS011;5727;42.600;23.028;2023-03-11T10:22:51;1.30;;;1.10;;
11344;SDS011;5727;42.600;23.028;2023-03-11T10:25:29;1.53;;;1.43;;
11344;SDS011;5727;42.600;23.028;2023-03-11T10:28:03;4.63;;;2.03;;
11344;SDS011;5727;42.600;23.028;2023-03-11T10:30:33;1.63;;;1.50;;
11344;SDS011;5727;42.600;23.028;2023-03-11T10:33:01;2.10;;;1.40;;
11344;SDS011;5727;42.600;23.028;2023-03-11T10:35:35;3.67;;;1.80;;
11344;SDS011;5727;42.600;23.028;2023-03-11T10:38:07;1.87;;;1.50;;
11344;SDS011;5727;42.600;23.028;2023-03-11T10:40:40;2.00;;;1.60;;
11344;SDS011;5727;42.600;23.028;2023-03-11T10:43:09;1.73;;;1.30;;
11344;SDS011;5727;42.600;23.028;2023-03-11T10:45:47;2.37;;;1.20;;
11344;SDS011;5727;42.600;23.028;2023-03-11T10:48:16;2.17;;;1.27;;
11344;SDS011;5727;42.600;23.028;2023-03-11T10:50:45;1.70;;;1.20;;
11344;SDS011;5727;42.600;23.028;2023-03-11T10:53:21;1.43;;;1.33;;
11344;SDS011;5727;42.600;23.028;2023-03-11T10:55:49;1.20;;;1.10;;
11344;SDS011;5727;42.600;23.028;2023-03-11T10:58:17;1.60;;;1.40;;
11344;SDS011;5727;42.600;23.028;2023-03-11T11:00:58;1.60;;;1.20;;
11344;SDS011;5727;42.600;23.028;2023-03-11T11:03:26;2.70;;;1.67;;
11344;SDS011;5727;42.600;23.028;2023-03-11T11:05:57;0.93;;;0.93;;
11344;SDS011;5727;42.600;23.028;2023-03-11T11:08:27;1.87;;;1.43;;
11344;SDS011;5727;42.600;23.028;2023-03-11T11:10:55;1.73;;;1.60;;
11344;SDS011;5727;42.600;23.028;2023-03-11T11:13:23;1.17;;;1.07;;
11344;SDS011;5727;42.600;23.028;2023-03-11T11:15:52;2.50;;;1.40;;
11344;SDS011;5727;42.600;23.028;2023-03-11T11:18:21;1.40;;;1.30;;
11344;SDS011;5727;42.600;23.028;2023-03-11T11:20:55;2.70;;;1.30;;
11344;SDS011;5727;42.600;23.028;2023-03-11T11:23:29;3.43;;;1.40;;
11344;SDS011;5727;42.600;23.028;2023-03-11T11:25:59;2.27;;;1.90;;
11344;SDS011;5727;42.600;23.028;2023-03-11T11:28:29;1.53;;;1.10;;
11344;SDS011;5727;42.600;23.028;2023-03-11T11:30:57;2.10;;;1.30;;
11344;SDS011;5727;42.600;23.028;2023-03-11T11:33:26;2.07;;;1.30;;
11344;SDS011;5727;42.600;23.028;2023-03-11T11:35:55;1.67;;;1.40;;
11344;SDS011;5727;42.600;23.028;2023-03-11T11:38:23;2.40;;;1.50;;
11344;SDS011;5727;42.600;23.028;2023-03-11T11:40:55;1.17;;;1.10;;
11344;SDS011;5727;42.600;23.028;2023-03-11T11:43:30;0.90;;;0.90;;
11344;SDS011;5727;42.600;23.028;2023-03-11T11:46:06;1.63;;;0.90;;
11344;SDS011;5727;42.600;23.028;2023-03-11T11:48:43;1.13;;;1.03;;
11344;SDS011;5727;42.600;23.028;2023-03-11T11:51:17;2.00;;;1.20;;
11344;SDS011;5727;42.600;23.028;2023-03-11T11:53:47;3.57;;;1.60;;
11344;SDS011;5727;42.600;23.028;2023-03-11T11:56:18;2.03;;;1.67;;
11344;SDS011;5727;42.600;23.028;2023-03-11T11:58:44;1.97;;;1.60;;
11344;SDS011;5727;42.600;23.028;2023-03-11T12:01:13;2.87;;;1.70;;
11344;SDS011;5727;42.600;23.028;2023-03-11T12:03:52;2.50;;;1.90;;
11344;SDS011;5727;42.600;23.028;2023-03-11T12:06:29;2.37;;;2.10;;
11344;SDS011;5727;42.600;23.028;2023-03-11T12:09:02;2.33;;;1.47;;
11344;SDS011;5727;42.600;23.028;2023-03-11T12:11:42;3.10;;;2.07;;
11344;SDS011;5727;42.600;23.028;2023-03-11T12:14:16;1.67;;;1.57;;
11344;SDS011;5727;42.600;23.028;2023-03-11T12:16:49;1.93;;;1.70;;
11344;SDS011;5727;42.600;23.028;2023-03-11T12:19:23;1.70;;;1.60;;
11344;SDS011;5727;42.600;23.028;2023-03-11T12:22:03;1.57;;;1.47;;
11344;SDS011;5727;42.600;23.028;2023-03-11T12:24:52;3.70;;;2.23;;
11344;SDS011;5727;42.600;23.028;2023-03-11T12:27:31;3.47;;;3.17;;
11344;SDS011;5727;42.600;23.028;2023-03-11T12:30:03;4.13;;;2.53;;
11344;SDS011;5727;42.600;23.028;2023-03-11T12:32:37;2.17;;;1.60;;
11344;SDS011;5727;42.600;23.028;2023-03-11T12:35:14;1.90;;;1.53;;
11344;SDS011;5727;42.600;23.028;2023-03-11T12:37:47;2.43;;;2.00;;
11344;SDS011;5727;42.600;23.028;2023-03-11T12:43:57;3.57;;;2.07;;
11344;SDS011;5727;42.600;23.028;2023-03-11T12:49:22;3.17;;;2.13;;
11344;SDS011;5727;42.600;23.028;2023-03-11T12:51:59;4.27;;;2.77;;
11344;SDS011;5727;42.600;23.028;2023-03-11T12:54:27;3.60;;;2.37;;
11344;SDS011;5727;42.600;23.028;2023-03-11T12:56:56;4.17;;;2.00;;
11344;SDS011;5727;42.600;23.028;2023-03-11T12:59:40;3.93;;;2.03;;
11344;SDS011;5727;42.600;23.028;2023-03-11T13:02:55;3.57;;;2.50;;
11344;SDS011;5727;42.600;23.028;2023-03-11T13:05:43;4.37;;;2.63;;
11344;SDS011;5727;42.600;23.028;2023-03-11T13:08:16;3.30;;;2.20;;
11344;SDS011;5727;42.600;23.028;2023-03-11T13:10:46;2.53;;;2.07;;
11344;SDS011;5727;42.600;23.028;2023-03-11T13:13:21;2.80;;;1.90;;
11344;SDS011;5727;42.600;23.028;2023-03-11T13:15:56;2.93;;;2.03;;
11344;SDS011;5727;42.600;23.028;2023-03-11T13:18:24;2.90;;;2.40;;
11344;SDS011;5727;42.600;23.028;2023-03-11T13:20:53;4.57;;;2.70;;
11344;SDS011;5727;42.600;23.028;2023-03-11T13:23:23;63.40;;;6.57;;
11344;SDS011;5727;42.600;23.028;2023-03-11T13:26:18;26.90;;;3.93;;
11344;SDS011;5727;42.600;23.028;2023-03-11T13:35:19;3.27;;;1.77;;
11344;SDS011;5727;42.600;23.028;2023-03-11T13:38:02;2.10;;;2.00;;
11344;SDS011;5727;42.600;23.028;2023-03-11T13:40:41;2.20;;;2.00;;
11344;SDS011;5727;42.600;23.028;2023-03-11T13:43:10;1.90;;;1.80;;
11344;SDS011;5727;42.600;23.028;2023-03-11T13:45:40;2.30;;;2.10;;
11344;SDS011;5727;42.600;23.028;2023-03-11T13:48:16;2.70;;;2.50;;
11344;SDS011;5727;42.600;23.028;2023-03-11T13:50:47;2.37;;;2.17;;
11344;SDS011;5727;42.600;23.028;2023-03-11T13:53:18;2.30;;;2.20;;
11344;SDS011;5727;42.600;23.028;2023-03-11T13:55:49;3.03;;;2.73;;
11344;SDS011;5727;42.600;23.028;2023-03-11T13:58:18;3.70;;;3.40;;
11344;SDS011;5727;42.600;23.028;2023-03-11T14:00:48;5.40;;;3.97;;
11344;SDS011;5727;42.600;23.028;2023-03-11T14:03:18;10.53;;;9.17;;
11344;SDS011;5727;42.600;23.028;2023-03-11T14:05:47;8.07;;;5.80;;
11344;SDS011;5727;42.600;23.028;2023-03-11T14:08:18;7.90;;;5.27;;
11344;SDS011;5727;42.600;23.028;2023-03-11T14:10:50;8.57;;;5.93;;
11344;SDS011;5727;42.600;23.028;2023-03-11T14:13:19;8.30;;;5.30;;
11344;SDS011;5727;42.600;23.028;2023-03-11T14:15:55;8.63;;;5.33;;
11344;SDS011;5727;42.600;23.028;2023-03-11T14:18:29;3.33;;;3.03;;
11344;SDS011;5727;42.600;23.028;2023-03-11T14:20:57;2.90;;;2.53;;
11344;SDS011;5727;42.600;23.028;2023-03-11T14:23:26;4.60;;;4.07;;
11344;SDS011;5727;42.600;23.028;2023-03-11T14:25:59;5.17;;;4.33;;
11344;SDS011;5727;42.600;23.028;2023-03-11T14:28:30;4.20;;;3.90;;
11344;SDS011;5727;42.600;23.028;2023-03-11T14:31:01;4.80;;;3.40;;
11344;SDS011;5727;42.600;23.028;2023-03-11T14:33:30;3.50;;;3.20;;
11344;SDS011;5727;42.600;23.028;2023-03-11T14:35:57;4.27;;;3.80;;
11344;SDS011;5727;42.600;23.028;2023-03-11T14:38:26;3.43;;;3.13;;
11344;SDS011;5727;42.600;23.028;2023-03-11T14:40:55;4.03;;;3.27;;
11344;SDS011;5727;42.600;23.028;2023-03-11T14:43:24;3.37;;;3.17;;
11344;SDS011;5727;42.600;23.028;2023-03-11T14:45:54;3.97;;;3.43;;
11344;SDS011;5727;42.600;23.028;2023-03-11T14:48:23;4.20;;;3.80;;
11344;SDS011;5727;42.600;23.028;2023-03-11T14:50:55;3.70;;;3.40;;
11344;SDS011;5727;42.600;23.028;2023-03-11T14:53:23;4.53;;;3.73;;
11344;SDS011;5727;42.600;23.028;2023-03-11T14:55:54;4.40;;;3.17;;
11344;SDS011;5727;42.600;23.028;2023-03-11T14:58:25;4.93;;;3.70;;
11344;SDS011;5727;42.600;23.028;2023-03-11T15:00:57;5.93;;;3.77;;
11344;SDS011;5727;42.600;23.028;2023-03-11T15:03:28;5.13;;;3.87;;
11344;SDS011;5727;42.600;23.028;2023-03-11T15:05:59;5.50;;;4.03;;
11344;SDS011;5727;42.600;23.028;2023-03-11T15:08:29;4.30;;;3.90;;
11344;SDS011;5727;42.600;23.028;2023-03-11T15:10:59;7.23;;;4.90;;
11344;SDS011;5727;42.600;23.028;2023-03-11T15:13:43;19.90;;;11.60;;
11344;SDS011;5727;42.600;23.028;2023-03-11T15:16:21;21.13;;;14.30;;
11344;SDS011;5727;42.600;23.028;2023-03-11T15:18:51;17.70;;;12.47;;